バルセロナ の空港の天気 - METARとTAF

バルセロナ・エル・プラット国際空港 ( LEBL / BCN ) - スペイン バルセロナ
飛行場実況気象(Metar)
観測時間07/28 14:30 CEST (07/28 12:30 UTC)
風向・風速東南東 6m/s
視程10km以上
天気現象
少しの雲 雲底高度 460m
気温28℃
湿度62%
気圧1017hPa
METARLEBL 281230Z 12012KT 090V150 9999 FEW015 28/20 Q1017 NOSIG
過去の天気等 Google飛行場航空写真 Wunderground天気予報

過去48時間のMETAR

飛行場予報(TAF)
発表時間: 7/28 13:00 CEST (7/28 11:00 UTC)
予報対象時間: 28日14時 CEST ~ 29日14時 CEST
風向・風速東南東 5m/s
視程10km以上
少しの雲 雲底高度 760m
28日19時 CEST ~ 28日22時 CEST に徐々に
風向・風速北東 4m/s
28日22時 CEST ~ 29日1時 CEST に徐々に
風向・風速北北西 3m/s
29日11時 CEST ~ 29日13時 CEST に徐々に
風向・風速南 4m/s
TAF LEBL 281100Z 2812/2912 11010KT 9999 FEW025 TX29/2812Z TN23/2905Z
BECMG 2817/2820 04007KT
BECMG 2820/2823 34005KT
BECMG 2909/2911 18008KT